Maxwell, Iowa
Current Conditions -  °F | °C
As of 1:53 AM on Friday 28 Nov 2014 (Local Time) from KAMW Reporting Station
Overcast Overcast  
Wind Chill:   Ceiling: 12000
Heat Index: 14°   Visibility: 10mi
Dew Point:   Wind: 13mph
Humidity: 71%   Direction: 140°SE
Pressure: 30.15"   Gusts: NA
Location:  41.89°N, 93.4°W
Report Text: KAMW 280753Z AUTO 14011KT 10SM OVC120 M10/M14 A3015 RMK AO2 SLP225 T11001144 $
Loading
Personal Weather Stations






























Interactive Weather Map New forecast layout! Learn more

10-Day Weather Forecast

Advertisements
Track Severe Weather on mobile